sensor_id;sensor_type;location;lat;lon;timestamp;P1;durP1;ratioP1;P2;durP2;ratioP2
35606;SDS011;21729;58.392;15.656;2023-02-08T00:02:07;15.05;;;5.90;;
35606;SDS011;21729;58.392;15.656;2023-02-08T00:04:36;10.85;;;5.20;;
35606;SDS011;21729;58.392;15.656;2023-02-08T00:07:03;13.33;;;5.30;;
35606;SDS011;21729;58.392;15.656;2023-02-08T00:09:30;13.88;;;5.75;;
35606;SDS011;21729;58.392;15.656;2023-02-08T00:11:58;10.38;;;5.55;;
35606;SDS011;21729;58.392;15.656;2023-02-08T00:14:25;11.25;;;6.03;;
35606;SDS011;21729;58.392;15.656;2023-02-08T00:16:52;12.80;;;6.25;;
35606;SDS011;21729;58.392;15.656;2023-02-08T00:19:19;14.65;;;6.40;;
35606;SDS011;21729;58.392;15.656;2023-02-08T00:21:48;12.00;;;6.25;;
35606;SDS011;21729;58.392;15.656;2023-02-08T00:24:15;16.80;;;6.95;;
35606;SDS011;21729;58.392;15.656;2023-02-08T00:26:42;11.43;;;6.75;;
35606;SDS011;21729;58.392;15.656;2023-02-08T00:29:09;15.02;;;6.93;;
35606;SDS011;21729;58.392;15.656;2023-02-08T00:31:36;16.02;;;7.22;;
35606;SDS011;21729;58.392;15.656;2023-02-08T00:34:03;13.10;;;6.65;;
35606;SDS011;21729;58.392;15.656;2023-02-08T00:36:31;17.35;;;6.80;;
35606;SDS011;21729;58.392;15.656;2023-02-08T00:38:59;15.65;;;7.35;;
35606;SDS011;21729;58.392;15.656;2023-02-08T00:41:26;13.85;;;6.53;;
35606;SDS011;21729;58.392;15.656;2023-02-08T00:43:53;18.05;;;6.93;;
35606;SDS011;21729;58.392;15.656;2023-02-08T00:46:21;17.95;;;7.38;;
35606;SDS011;21729;58.392;15.656;2023-02-08T00:48:48;14.05;;;6.00;;
35606;SDS011;21729;58.392;15.656;2023-02-08T00:51:15;14.68;;;6.93;;
35606;SDS011;21729;58.392;15.656;2023-02-08T00:53:42;13.55;;;6.22;;
35606;SDS011;21729;58.392;15.656;2023-02-08T00:56:12;13.15;;;6.20;;
35606;SDS011;21729;58.392;15.656;2023-02-08T00:58:40;12.00;;;6.28;;
35606;SDS011;21729;58.392;15.656;2023-02-08T01:01:07;15.03;;;6.50;;
35606;SDS011;21729;58.392;15.656;2023-02-08T01:03:35;20.52;;;7.00;;
35606;SDS011;21729;58.392;15.656;2023-02-08T01:06:05;11.38;;;5.70;;
35606;SDS011;21729;58.392;15.656;2023-02-08T01:08:34;16.77;;;6.75;;
35606;SDS011;21729;58.392;15.656;2023-02-08T01:11:02;13.73;;;7.00;;
35606;SDS011;21729;58.392;15.656;2023-02-08T01:13:32;14.95;;;6.93;;
35606;SDS011;21729;58.392;15.656;2023-02-08T01:16:07;16.88;;;7.32;;
35606;SDS011;21729;58.392;15.656;2023-02-08T01:18:36;15.60;;;7.10;;
35606;SDS011;21729;58.392;15.656;2023-02-08T01:21:04;12.70;;;6.80;;
35606;SDS011;21729;58.392;15.656;2023-02-08T01:23:32;13.85;;;6.53;;
35606;SDS011;21729;58.392;15.656;2023-02-08T01:26:00;14.53;;;6.80;;
35606;SDS011;21729;58.392;15.656;2023-02-08T01:28:27;14.68;;;6.10;;
35606;SDS011;21729;58.392;15.656;2023-02-08T01:30:56;11.93;;;6.57;;
35606;SDS011;21729;58.392;15.656;2023-02-08T01:33:23;13.97;;;6.93;;
35606;SDS011;21729;58.392;15.656;2023-02-08T01:35:50;14.30;;;6.40;;
35606;SDS011;21729;58.392;15.656;2023-02-08T01:38:18;14.48;;;6.47;;
35606;SDS011;21729;58.392;15.656;2023-02-08T01:40:45;14.32;;;6.78;;
35606;SDS011;21729;58.392;15.656;2023-02-08T01:43:15;13.18;;;6.78;;
35606;SDS011;21729;58.392;15.656;2023-02-08T01:45:47;14.57;;;6.72;;
35606;SDS011;21729;58.392;15.656;2023-02-08T01:48:16;11.88;;;6.95;;
35606;SDS011;21729;58.392;15.656;2023-02-08T01:50:47;13.10;;;7.15;;
35606;SDS011;21729;58.392;15.656;2023-02-08T01:53:18;15.50;;;6.57;;
35606;SDS011;21729;58.392;15.656;2023-02-08T01:55:47;16.88;;;5.78;;
35606;SDS011;21729;58.392;15.656;2023-02-08T01:58:17;13.90;;;6.43;;
35606;SDS011;21729;58.392;15.656;2023-02-08T02:00:46;11.88;;;6.60;;
35606;SDS011;21729;58.392;15.656;2023-02-08T02:03:13;13.35;;;6.80;;
35606;SDS011;21729;58.392;15.656;2023-02-08T02:05:45;14.40;;;6.90;;
35606;SDS011;21729;58.392;15.656;2023-02-08T02:08:15;14.60;;;6.70;;
35606;SDS011;21729;58.392;15.656;2023-02-08T02:10:42;12.25;;;5.85;;
35606;SDS011;21729;58.392;15.656;2023-02-08T02:13:11;11.40;;;6.72;;
35606;SDS011;21729;58.392;15.656;2023-02-08T02:15:40;12.77;;;6.60;;
35606;SDS011;21729;58.392;15.656;2023-02-08T02:18:09;14.95;;;6.40;;
35606;SDS011;21729;58.392;15.656;2023-02-08T02:32:46;10.45;;;6.15;;
35606;SDS011;21729;58.392;15.656;2023-02-08T02:35:35;16.88;;;6.90;;
35606;SDS011;21729;58.392;15.656;2023-02-08T02:38:13;13.30;;;6.28;;
35606;SDS011;21729;58.392;15.656;2023-02-08T02:40:48;12.85;;;6.93;;
35606;SDS011;21729;58.392;15.656;2023-02-08T02:43:20;12.57;;;6.60;;
35606;SDS011;21729;58.392;15.656;2023-02-08T02:46:06;11.95;;;6.35;;
35606;SDS011;21729;58.392;15.656;2023-02-08T02:48:52;12.85;;;6.53;;
35606;SDS011;21729;58.392;15.656;2023-02-08T02:51:24;14.63;;;6.40;;
35606;SDS011;21729;58.392;15.656;2023-02-08T02:53:58;12.93;;;6.23;;
35606;SDS011;21729;58.392;15.656;2023-02-08T02:56:29;12.23;;;6.10;;
35606;SDS011;21729;58.392;15.656;2023-02-08T02:59:02;14.13;;;6.57;;
35606;SDS011;21729;58.392;15.656;2023-02-08T03:01:31;13.32;;;5.78;;
35606;SDS011;21729;58.392;15.656;2023-02-08T03:04:10;11.77;;;6.10;;
35606;SDS011;21729;58.392;15.656;2023-02-08T03:06:40;11.93;;;6.57;;
35606;SDS011;21729;58.392;15.656;2023-02-08T03:12:17;12.80;;;7.05;;
35606;SDS011;21729;58.392;15.656;2023-02-08T03:14:56;17.23;;;7.65;;
35606;SDS011;21729;58.392;15.656;2023-02-08T03:17:32;17.93;;;8.20;;
35606;SDS011;21729;58.392;15.656;2023-02-08T03:20:09;14.98;;;7.65;;
35606;SDS011;21729;58.392;15.656;2023-02-08T03:22:42;16.08;;;8.00;;
35606;SDS011;21729;58.392;15.656;2023-02-08T03:25:17;14.00;;;8.23;;
35606;SDS011;21729;58.392;15.656;2023-02-08T03:27:51;15.67;;;8.30;;
35606;SDS011;21729;58.392;15.656;2023-02-08T03:30:27;12.35;;;7.57;;
35606;SDS011;21729;58.392;15.656;2023-02-08T03:32:57;14.02;;;7.70;;
35606;SDS011;21729;58.392;15.656;2023-02-08T03:35:32;14.55;;;8.05;;
35606;SDS011;21729;58.392;15.656;2023-02-08T03:38:03;15.55;;;7.65;;
35606;SDS011;21729;58.392;15.656;2023-02-08T03:40:35;14.95;;;7.80;;
35606;SDS011;21729;58.392;15.656;2023-02-08T03:43:07;14.40;;;8.13;;
35606;SDS011;21729;58.392;15.656;2023-02-08T03:45:41;12.57;;;7.70;;
35606;SDS011;21729;58.392;15.656;2023-02-08T03:48:12;16.45;;;7.57;;
35606;SDS011;21729;58.392;15.656;2023-02-08T03:50:45;14.35;;;6.93;;
35606;SDS011;21729;58.392;15.656;2023-02-08T03:53:16;11.68;;;7.30;;
35606;SDS011;21729;58.392;15.656;2023-02-08T03:55:46;14.27;;;7.60;;
35606;SDS011;21729;58.392;15.656;2023-02-08T03:58:21;13.60;;;7.60;;
35606;SDS011;21729;58.392;15.656;2023-02-08T04:00:51;12.47;;;6.93;;
35606;SDS011;21729;58.392;15.656;2023-02-08T04:03:23;13.75;;;6.90;;
35606;SDS011;21729;58.392;15.656;2023-02-08T04:05:53;12.10;;;7.07;;
35606;SDS011;21729;58.392;15.656;2023-02-08T04:08:21;15.18;;;7.15;;
35606;SDS011;21729;58.392;15.656;2023-02-08T04:10:48;16.00;;;7.53;;
35606;SDS011;21729;58.392;15.656;2023-02-08T04:13:15;12.35;;;6.60;;
35606;SDS011;21729;58.392;15.656;2023-02-08T04:15:42;15.25;;;7.55;;
35606;SDS011;21729;58.392;15.656;2023-02-08T04:18:10;13.33;;;7.37;;
35606;SDS011;21729;58.392;15.656;2023-02-08T04:20:37;16.65;;;6.95;;
35606;SDS011;21729;58.392;15.656;2023-02-08T04:23:05;15.15;;;6.95;;
35606;SDS011;21729;58.392;15.656;2023-02-08T04:25:32;11.63;;;6.90;;
35606;SDS011;21729;58.392;15.656;2023-02-08T04:27:59;12.82;;;7.00;;
35606;SDS011;21729;58.392;15.656;2023-02-08T04:30:29;12.68;;;7.05;;
35606;SDS011;21729;58.392;15.656;2023-02-08T04:32:56;14.07;;;6.82;;
35606;SDS011;21729;58.392;15.656;2023-02-08T04:35:24;10.80;;;7.22;;
35606;SDS011;21729;58.392;15.656;2023-02-08T04:37:51;13.77;;;7.03;;
35606;SDS011;21729;58.392;15.656;2023-02-08T04:40:19;11.82;;;7.20;;
35606;SDS011;21729;58.392;15.656;2023-02-08T04:42:46;12.10;;;7.20;;
35606;SDS011;21729;58.392;15.656;2023-02-08T04:45:14;14.73;;;7.30;;
35606;SDS011;21729;58.392;15.656;2023-02-08T04:47:41;12.45;;;7.18;;
35606;SDS011;21729;58.392;15.656;2023-02-08T04:50:08;13.27;;;6.88;;
35606;SDS011;21729;58.392;15.656;2023-02-08T04:52:35;12.43;;;6.90;;
35606;SDS011;21729;58.392;15.656;2023-02-08T04:55:02;12.18;;;7.10;;
35606;SDS011;21729;58.392;15.656;2023-02-08T04:57:31;11.97;;;6.73;;
35606;SDS011;21729;58.392;15.656;2023-02-08T04:59:58;11.77;;;6.30;;
35606;SDS011;21729;58.392;15.656;2023-02-08T05:02:26;12.90;;;7.30;;
35606;SDS011;21729;58.392;15.656;2023-02-08T05:04:53;13.90;;;6.80;;
35606;SDS011;21729;58.392;15.656;2023-02-08T05:07:20;13.10;;;7.15;;
35606;SDS011;21729;58.392;15.656;2023-02-08T05:09:48;11.40;;;6.90;;
35606;SDS011;21729;58.392;15.656;2023-02-08T05:12:15;13.38;;;7.70;;
35606;SDS011;21729;58.392;15.656;2023-02-08T05:14:43;14.10;;;7.60;;
35606;SDS011;21729;58.392;15.656;2023-02-08T05:17:10;13.57;;;7.10;;
35606;SDS011;21729;58.392;15.656;2023-02-08T05:19:38;10.80;;;6.70;;
35606;SDS011;21729;58.392;15.656;2023-02-08T05:22:05;12.95;;;6.93;;
35606;SDS011;21729;58.392;15.656;2023-02-08T05:24:32;10.80;;;6.75;;
35606;SDS011;21729;58.392;15.656;2023-02-08T05:26:59;10.18;;;6.35;;
35606;SDS011;21729;58.392;15.656;2023-02-08T05:29:26;11.00;;;6.93;;
35606;SDS011;21729;58.392;15.656;2023-02-08T05:31:54;12.23;;;6.78;;
35606;SDS011;21729;58.392;15.656;2023-02-08T05:34:21;12.73;;;7.23;;
35606;SDS011;21729;58.392;15.656;2023-02-08T05:36:49;12.20;;;7.40;;
35606;SDS011;21729;58.392;15.656;2023-02-08T05:39:16;12.50;;;7.10;;
35606;SDS011;21729;58.392;15.656;2023-02-08T05:41:43;11.20;;;6.88;;
35606;SDS011;21729;58.392;15.656;2023-02-08T05:44:11;12.20;;;6.93;;
35606;SDS011;21729;58.392;15.656;2023-02-08T05:46:38;10.20;;;7.28;;
35606;SDS011;21729;58.392;15.656;2023-02-08T05:49:07;13.38;;;6.90;;
35606;SDS011;21729;58.392;15.656;2023-02-08T05:51:34;13.05;;;6.55;;
35606;SDS011;21729;58.392;15.656;2023-02-08T05:54:01;9.80;;;6.72;;
35606;SDS011;21729;58.392;15.656;2023-02-08T05:56:29;13.80;;;7.20;;
35606;SDS011;21729;58.392;15.656;2023-02-08T05:58:58;11.52;;;7.15;;
35606;SDS011;21729;58.392;15.656;2023-02-08T06:01:26;11.13;;;7.43;;
35606;SDS011;21729;58.392;15.656;2023-02-08T06:03:53;14.48;;;7.68;;
35606;SDS011;21729;58.392;15.656;2023-02-08T06:06:22;12.13;;;6.75;;
35606;SDS011;21729;58.392;15.656;2023-02-08T06:08:49;11.60;;;7.10;;
35606;SDS011;21729;58.392;15.656;2023-02-08T06:11:16;12.85;;;7.10;;
35606;SDS011;21729;58.392;15.656;2023-02-08T06:13:44;12.77;;;7.15;;
35606;SDS011;21729;58.392;15.656;2023-02-08T06:16:11;10.55;;;6.93;;
35606;SDS011;21729;58.392;15.656;2023-02-08T06:18:39;12.10;;;7.05;;
35606;SDS011;21729;58.392;15.656;2023-02-08T06:21:06;10.60;;;6.43;;
35606;SDS011;21729;58.392;15.656;2023-02-08T06:23:35;10.15;;;6.22;;
35606;SDS011;21729;58.392;15.656;2023-02-08T06:26:02;10.25;;;6.38;;
35606;SDS011;21729;58.392;15.656;2023-02-08T06:28:30;12.57;;;6.65;;
35606;SDS011;21729;58.392;15.656;2023-02-08T06:30:57;12.27;;;6.25;;
35606;SDS011;21729;58.392;15.656;2023-02-08T06:33:24;11.68;;;6.45;;
35606;SDS011;21729;58.392;15.656;2023-02-08T06:35:52;10.82;;;6.38;;
35606;SDS011;21729;58.392;15.656;2023-02-08T06:38:19;11.35;;;6.65;;
35606;SDS011;21729;58.392;15.656;2023-02-08T06:40:48;10.98;;;6.43;;
35606;SDS011;21729;58.392;15.656;2023-02-08T06:43:15;11.60;;;6.50;;
35606;SDS011;21729;58.392;15.656;2023-02-08T06:45:43;10.88;;;6.35;;
35606;SDS011;21729;58.392;15.656;2023-02-08T06:48:11;10.38;;;6.40;;
35606;SDS011;21729;58.392;15.656;2023-02-08T06:50:38;10.57;;;6.32;;
35606;SDS011;21729;58.392;15.656;2023-02-08T06:53:05;12.50;;;6.93;;
35606;SDS011;21729;58.392;15.656;2023-02-08T06:55:32;13.73;;;7.72;;
35606;SDS011;21729;58.392;15.656;2023-02-08T06:58:01;11.90;;;7.35;;
35606;SDS011;21729;58.392;15.656;2023-02-08T07:00:28;13.73;;;7.70;;
35606;SDS011;21729;58.392;15.656;2023-02-08T07:02:55;12.32;;;7.40;;
35606;SDS011;21729;58.392;15.656;2023-02-08T07:05:24;12.55;;;7.20;;
35606;SDS011;21729;58.392;15.656;2023-02-08T07:07:52;10.77;;;7.25;;
35606;SDS011;21729;58.392;15.656;2023-02-08T07:10:19;12.40;;;8.07;;
35606;SDS011;21729;58.392;15.656;2023-02-08T07:12:46;13.43;;;7.82;;
35606;SDS011;21729;58.392;15.656;2023-02-08T07:15:14;14.90;;;7.93;;
35606;SDS011;21729;58.392;15.656;2023-02-08T07:17:42;12.45;;;8.18;;
35606;SDS011;21729;58.392;15.656;2023-02-08T07:20:09;14.25;;;8.20;;
35606;SDS011;21729;58.392;15.656;2023-02-08T07:22:37;14.65;;;8.50;;
35606;SDS011;21729;58.392;15.656;2023-02-08T07:25:04;14.05;;;8.52;;
35606;SDS011;21729;58.392;15.656;2023-02-08T07:27:32;15.25;;;8.77;;
35606;SDS011;21729;58.392;15.656;2023-02-08T07:30:00;13.32;;;7.50;;
35606;SDS011;21729;58.392;15.656;2023-02-08T07:32:28;11.45;;;7.72;;
35606;SDS011;21729;58.392;15.656;2023-02-08T07:34:55;13.32;;;7.90;;
35606;SDS011;21729;58.392;15.656;2023-02-08T07:37:22;15.02;;;7.90;;
35606;SDS011;21729;58.392;15.656;2023-02-08T07:39:50;13.27;;;7.60;;
35606;SDS011;21729;58.392;15.656;2023-02-08T07:42:17;12.00;;;7.97;;
35606;SDS011;21729;58.392;15.656;2023-02-08T07:44:44;12.38;;;7.82;;
35606;SDS011;21729;58.392;15.656;2023-02-08T07:47:11;14.75;;;8.10;;
35606;SDS011;21729;58.392;15.656;2023-02-08T07:49:40;11.57;;;7.47;;
35606;SDS011;21729;58.392;15.656;2023-02-08T07:52:07;13.10;;;7.13;;
35606;SDS011;21729;58.392;15.656;2023-02-08T07:54:34;11.82;;;7.38;;
35606;SDS011;21729;58.392;15.656;2023-02-08T07:57:01;11.18;;;7.13;;
35606;SDS011;21729;58.392;15.656;2023-02-08T07:59:28;11.55;;;7.55;;
35606;SDS011;21729;58.392;15.656;2023-02-08T08:01:55;12.50;;;7.65;;
35606;SDS011;21729;58.392;15.656;2023-02-08T08:04:22;12.27;;;7.30;;
35606;SDS011;21729;58.392;15.656;2023-02-08T08:06:51;9.90;;;7.22;;
35606;SDS011;21729;58.392;15.656;2023-02-08T08:09:18;11.95;;;7.35;;
35606;SDS011;21729;58.392;15.656;2023-02-08T08:11:45;11.55;;;7.45;;
35606;SDS011;21729;58.392;15.656;2023-02-08T08:14:12;10.65;;;7.20;;
35606;SDS011;21729;58.392;15.656;2023-02-08T08:16:39;12.05;;;7.60;;
35606;SDS011;21729;58.392;15.656;2023-02-08T08:19:07;11.30;;;7.72;;
35606;SDS011;21729;58.392;15.656;2023-02-08T08:21:35;12.65;;;7.40;;
35606;SDS011;21729;58.392;15.656;2023-02-08T08:24:03;11.43;;;7.13;;
35606;SDS011;21729;58.392;15.656;2023-02-08T08:26:30;13.57;;;7.68;;
35606;SDS011;21729;58.392;15.656;2023-02-08T08:28:59;13.90;;;7.97;;
35606;SDS011;21729;58.392;15.656;2023-02-08T08:31:27;12.93;;;8.02;;
35606;SDS011;21729;58.392;15.656;2023-02-08T08:33:54;12.68;;;7.57;;
35606;SDS011;21729;58.392;15.656;2023-02-08T08:36:22;12.35;;;7.22;;
35606;SDS011;21729;58.392;15.656;2023-02-08T08:38:49;13.32;;;7.13;;
35606;SDS011;21729;58.392;15.656;2023-02-08T08:41:18;11.27;;;7.20;;
35606;SDS011;21729;58.392;15.656;2023-02-08T08:43:46;12.82;;;7.45;;
35606;SDS011;21729;58.392;15.656;2023-02-08T08:46:13;13.40;;;7.35;;
35606;SDS011;21729;58.392;15.656;2023-02-08T08:48:40;11.50;;;6.37;;
35606;SDS011;21729;58.392;15.656;2023-02-08T08:51:08;9.30;;;6.50;;
35606;SDS011;21729;58.392;15.656;2023-02-08T08:53:35;12.25;;;7.18;;
35606;SDS011;21729;58.392;15.656;2023-02-08T08:56:02;10.15;;;6.75;;
35606;SDS011;21729;58.392;15.656;2023-02-08T08:58:31;12.98;;;6.97;;
35606;SDS011;21729;58.392;15.656;2023-02-08T09:00:59;11.63;;;6.93;;
35606;SDS011;21729;58.392;15.656;2023-02-08T09:03:26;12.73;;;7.13;;
35606;SDS011;21729;58.392;15.656;2023-02-08T09:05:54;11.75;;;7.38;;
35606;SDS011;21729;58.392;15.656;2023-02-08T09:08:21;11.88;;;6.65;;
35606;SDS011;21729;58.392;15.656;2023-02-08T09:10:48;11.70;;;7.07;;
35606;SDS011;21729;58.392;15.656;2023-02-08T09:13:16;10.80;;;6.78;;
35606;SDS011;21729;58.392;15.656;2023-02-08T09:15:46;10.70;;;6.82;;
35606;SDS011;21729;58.392;15.656;2023-02-08T09:18:14;9.45;;;6.82;;
35606;SDS011;21729;58.392;15.656;2023-02-08T09:20:42;8.85;;;6.43;;
35606;SDS011;21729;58.392;15.656;2023-02-08T09:23:09;11.82;;;6.65;;
35606;SDS011;21729;58.392;15.656;2023-02-08T09:25:36;9.75;;;6.45;;
35606;SDS011;21729;58.392;15.656;2023-02-08T09:28:03;10.90;;;6.40;;
35606;SDS011;21729;58.392;15.656;2023-02-08T09:30:31;9.33;;;6.53;;
35606;SDS011;21729;58.392;15.656;2023-02-08T09:33:00;9.50;;;6.05;;
35606;SDS011;21729;58.392;15.656;2023-02-08T09:35:27;9.90;;;6.10;;
35606;SDS011;21729;58.392;15.656;2023-02-08T09:37:54;7.75;;;4.82;;
35606;SDS011;21729;58.392;15.656;2023-02-08T09:40:28;11.53;;;5.67;;
35606;SDS011;21729;58.392;15.656;2023-02-08T09:43:03;7.80;;;5.07;;
35606;SDS011;21729;58.392;15.656;2023-02-08T09:45:43;7.45;;;4.82;;
35606;SDS011;21729;58.392;15.656;2023-02-08T09:48:18;8.07;;;4.95;;
35606;SDS011;21729;58.392;15.656;2023-02-08T09:50:49;5.88;;;4.75;;
35606;SDS011;21729;58.392;15.656;2023-02-08T09:53:20;9.63;;;4.82;;
35606;SDS011;21729;58.392;15.656;2023-02-08T09:55:55;7.47;;;4.60;;
35606;SDS011;21729;58.392;15.656;2023-02-08T09:58:25;7.57;;;4.68;;
35606;SDS011;21729;58.392;15.656;2023-02-08T10:00:55;7.88;;;4.78;;
35606;SDS011;21729;58.392;15.656;2023-02-08T10:03:29;6.57;;;4.50;;
35606;SDS011;21729;58.392;15.656;2023-02-08T10:06:00;5.00;;;4.00;;
35606;SDS011;21729;58.392;15.656;2023-02-08T10:08:28;5.40;;;4.22;;
35606;SDS011;21729;58.392;15.656;2023-02-08T10:10:58;6.80;;;4.37;;
35606;SDS011;21729;58.392;15.656;2023-02-08T10:13:43;5.78;;;3.70;;
35606;SDS011;21729;58.392;15.656;2023-02-08T10:16:28;5.82;;;3.65;;
35606;SDS011;21729;58.392;15.656;2023-02-08T10:19:13;5.10;;;3.55;;
35606;SDS011;21729;58.392;15.656;2023-02-08T10:21:54;5.28;;;3.60;;
35606;SDS011;21729;58.392;15.656;2023-02-08T10:24:33;4.47;;;3.15;;
35606;SDS011;21729;58.392;15.656;2023-02-08T10:27:22;3.67;;;2.88;;
35606;SDS011;21729;58.392;15.656;2023-02-08T10:30:10;4.10;;;2.70;;
35606;SDS011;21729;58.392;15.656;2023-02-08T10:32:55;3.77;;;2.67;;
35606;SDS011;21729;58.392;15.656;2023-02-08T10:35:28;3.92;;;2.50;;
35606;SDS011;21729;58.392;15.656;2023-02-08T10:38:02;3.20;;;2.70;;
35606;SDS011;21729;58.392;15.656;2023-02-08T10:40:53;2.67;;;2.33;;
35606;SDS011;21729;58.392;15.656;2023-02-08T10:43:23;3.17;;;2.42;;
35606;SDS011;21729;58.392;15.656;2023-02-08T10:46:00;3.90;;;2.50;;
35606;SDS011;21729;58.392;15.656;2023-02-08T10:48:33;3.50;;;2.67;;
35606;SDS011;21729;58.392;15.656;2023-02-08T10:51:11;6.10;;;2.72;;
35606;SDS011;21729;58.392;15.656;2023-02-08T10:53:41;3.20;;;2.55;;
35606;SDS011;21729;58.392;15.656;2023-02-08T10:56:20;4.32;;;2.80;;
35606;SDS011;21729;58.392;15.656;2023-02-08T10:59:04;4.13;;;2.80;;
35606;SDS011;21729;58.392;15.656;2023-02-08T11:01:38;4.23;;;2.80;;
35606;SDS011;21729;58.392;15.656;2023-02-08T11:04:06;3.00;;;2.70;;
35606;SDS011;21729;58.392;15.656;2023-02-08T11:06:37;3.72;;;2.63;;
35606;SDS011;21729;58.392;15.656;2023-02-08T11:09:05;3.17;;;2.55;;
35606;SDS011;21729;58.392;15.656;2023-02-08T11:11:32;3.08;;;2.45;;
35606;SDS011;21729;58.392;15.656;2023-02-08T11:14:04;3.10;;;2.45;;
35606;SDS011;21729;58.392;15.656;2023-02-08T11:16:34;3.23;;;2.60;;
35606;SDS011;21729;58.392;15.656;2023-02-08T11:19:03;2.85;;;2.47;;
35606;SDS011;21729;58.392;15.656;2023-02-08T11:21:32;4.28;;;2.60;;
35606;SDS011;21729;58.392;15.656;2023-02-08T11:24:03;3.55;;;3.00;;
35606;SDS011;21729;58.392;15.656;2023-02-08T11:26:43;3.53;;;2.87;;
35606;SDS011;21729;58.392;15.656;2023-02-08T11:29:13;3.30;;;2.85;;
35606;SDS011;21729;58.392;15.656;2023-02-08T11:31:54;3.95;;;2.78;;
35606;SDS011;21729;58.392;15.656;2023-02-08T11:34:24;2.88;;;2.20;;
35606;SDS011;21729;58.392;15.656;2023-02-08T11:36:51;3.65;;;2.72;;
35606;SDS011;21729;58.392;15.656;2023-02-08T11:39:22;3.42;;;2.30;;
35606;SDS011;21729;58.392;15.656;2023-02-08T11:41:52;3.83;;;2.35;;
35606;SDS011;21729;58.392;15.656;2023-02-08T11:44:22;2.90;;;2.20;;
35606;SDS011;21729;58.392;15.656;2023-02-08T11:46:53;3.13;;;2.28;;
35606;SDS011;21729;58.392;15.656;2023-02-08T11:49:22;4.10;;;2.45;;
35606;SDS011;21729;58.392;15.656;2023-02-08T11:51:52;2.55;;;2.20;;
35606;SDS011;21729;58.392;15.656;2023-02-08T11:54:34;2.30;;;1.80;;
35606;SDS011;21729;58.392;15.656;2023-02-08T11:57:10;2.70;;;2.30;;
35606;SDS011;21729;58.392;15.656;2023-02-08T11:59:40;2.40;;;2.17;;
35606;SDS011;21729;58.392;15.656;2023-02-08T12:02:25;3.22;;;2.30;;
35606;SDS011;21729;58.392;15.656;2023-02-08T12:05:00;2.42;;;2.10;;
35606;SDS011;21729;58.392;15.656;2023-02-08T12:07:34;2.88;;;2.08;;
35606;SDS011;21729;58.392;15.656;2023-02-08T12:10:33;2.88;;;2.00;;
35606;SDS011;21729;58.392;15.656;2023-02-08T12:13:25;2.38;;;2.08;;
35606;SDS011;21729;58.392;15.656;2023-02-08T12:16:26;2.97;;;2.20;;
35606;SDS011;21729;58.392;15.656;2023-02-08T12:19:20;3.00;;;2.40;;
35606;SDS011;21729;58.392;15.656;2023-02-08T12:22:03;3.10;;;2.33;;
35606;SDS011;21729;58.392;15.656;2023-02-08T12:24:34;3.47;;;2.30;;
35606;SDS011;21729;58.392;15.656;2023-02-08T12:27:15;2.60;;;1.98;;
35606;SDS011;21729;58.392;15.656;2023-02-08T12:29:55;2.55;;;2.03;;
35606;SDS011;21729;58.392;15.656;2023-02-08T12:32:38;2.22;;;2.00;;
35606;SDS011;21729;58.392;15.656;2023-02-08T12:35:27;2.88;;;2.20;;
35606;SDS011;21729;58.392;15.656;2023-02-08T12:38:16;4.00;;;2.20;;
35606;SDS011;21729;58.392;15.656;2023-02-08T12:41:12;3.33;;;2.17;;
35606;SDS011;21729;58.392;15.656;2023-02-08T12:43:50;2.80;;;2.20;;
35606;SDS011;21729;58.392;15.656;2023-02-08T12:46:32;4.03;;;2.40;;
35606;SDS011;21729;58.392;15.656;2023-02-08T12:52:15;2.33;;;1.83;;
35606;SDS011;21729;58.392;15.656;2023-02-08T12:54:49;2.83;;;2.10;;
35606;SDS011;21729;58.392;15.656;2023-02-08T12:57:20;2.35;;;2.00;;
35606;SDS011;21729;58.392;15.656;2023-02-08T12:59:52;2.40;;;2.20;;
35606;SDS011;21729;58.392;15.656;2023-02-08T13:02:24;2.03;;;1.85;;
35606;SDS011;21729;58.392;15.656;2023-02-08T13:04:55;2.58;;;1.80;;
35606;SDS011;21729;58.392;15.656;2023-02-08T13:07:28;2.55;;;2.20;;
35606;SDS011;21729;58.392;15.656;2023-02-08T13:09:59;2.65;;;2.10;;
35606;SDS011;21729;58.392;15.656;2023-02-08T13:12:32;2.35;;;2.15;;
35606;SDS011;21729;58.392;15.656;2023-02-08T13:15:05;1.83;;;1.73;;
35606;SDS011;21729;58.392;15.656;2023-02-08T13:17:40;2.50;;;1.88;;
35606;SDS011;21729;58.392;15.656;2023-02-08T13:23:03;3.45;;;2.00;;
35606;SDS011;21729;58.392;15.656;2023-02-08T13:25:38;2.50;;;2.10;;
35606;SDS011;21729;58.392;15.656;2023-02-08T13:28:15;2.38;;;2.17;;
35606;SDS011;21729;58.392;15.656;2023-02-08T13:30:47;2.70;;;2.20;;
35606;SDS011;21729;58.392;15.656;2023-02-08T13:33:22;2.40;;;2.13;;
35606;SDS011;21729;58.392;15.656;2023-02-08T13:35:55;2.20;;;2.05;;
35606;SDS011;21729;58.392;15.656;2023-02-08T13:38:24;2.70;;;2.10;;
35606;SDS011;21729;58.392;15.656;2023-02-08T13:41:07;2.40;;;2.13;;
35606;SDS011;21729;58.392;15.656;2023-02-08T13:43:42;3.10;;;2.00;;
35606;SDS011;21729;58.392;15.656;2023-02-08T13:46:17;3.60;;;1.77;;
35606;SDS011;21729;58.392;15.656;2023-02-08T13:48:46;2.22;;;1.88;;
35606;SDS011;21729;58.392;15.656;2023-02-08T13:54:19;2.15;;;1.90;;
35606;SDS011;21729;58.392;15.656;2023-02-08T13:56:49;3.77;;;1.90;;
35606;SDS011;21729;58.392;15.656;2023-02-08T13:59:24;2.80;;;2.00;;
35606;SDS011;21729;58.392;15.656;2023-02-08T14:04:46;2.35;;;1.90;;
35606;SDS011;21729;58.392;15.656;2023-02-08T14:07:18;3.90;;;2.10;;
35606;SDS011;21729;58.392;15.656;2023-02-08T14:09:53;3.35;;;2.10;;
35606;SDS011;21729;58.392;15.656;2023-02-08T14:12:35;2.55;;;1.98;;
35606;SDS011;21729;58.392;15.656;2023-02-08T14:17:56;2.50;;;1.95;;
35606;SDS011;21729;58.392;15.656;2023-02-08T14:20:25;4.32;;;2.30;;
35606;SDS011;21729;58.392;15.656;2023-02-08T14:23:00;2.50;;;2.03;;
35606;SDS011;21729;58.392;15.656;2023-02-08T14:25:30;3.30;;;2.30;;
35606;SDS011;21729;58.392;15.656;2023-02-08T14:28:06;2.28;;;2.08;;
35606;SDS011;21729;58.392;15.656;2023-02-08T14:30:52;3.72;;;2.22;;
35606;SDS011;21729;58.392;15.656;2023-02-08T14:33:24;2.53;;;1.90;;
35606;SDS011;21729;58.392;15.656;2023-02-08T14:35:54;3.35;;;2.30;;
35606;SDS011;21729;58.392;15.656;2023-02-08T14:38:32;2.83;;;2.30;;
35606;SDS011;21729;58.392;15.656;2023-02-08T14:50:38;3.10;;;2.47;;
35606;SDS011;21729;58.392;15.656;2023-02-08T14:53:14;3.42;;;2.50;;
35606;SDS011;21729;58.392;15.656;2023-02-08T14:55:51;3.53;;;2.60;;
35606;SDS011;21729;58.392;15.656;2023-02-08T14:58:24;3.65;;;2.80;;
35606;SDS011;21729;58.392;15.656;2023-02-08T15:00:55;4.70;;;2.80;;
35606;SDS011;21729;58.392;15.656;2023-02-08T15:03:26;4.50;;;3.00;;
35606;SDS011;21729;58.392;15.656;2023-02-08T15:06:11;5.05;;;3.40;;
35606;SDS011;21729;58.392;15.656;2023-02-08T15:09:12;3.83;;;3.40;;
35606;SDS011;21729;58.392;15.656;2023-02-08T15:11:46;3.75;;;3.20;;
35606;SDS011;21729;58.392;15.656;2023-02-08T15:14:16;5.60;;;3.50;;
35606;SDS011;21729;58.392;15.656;2023-02-08T15:16:45;4.70;;;3.70;;
35606;SDS011;21729;58.392;15.656;2023-02-08T15:19:17;4.10;;;3.67;;
35606;SDS011;21729;58.392;15.656;2023-02-08T15:21:50;4.55;;;3.90;;
35606;SDS011;21729;58.392;15.656;2023-02-08T15:24:18;5.35;;;3.72;;
35606;SDS011;21729;58.392;15.656;2023-02-08T15:26:48;5.05;;;3.85;;
35606;SDS011;21729;58.392;15.656;2023-02-08T15:29:17;5.57;;;3.78;;